sensor_id;sensor_type;location;lat;lon;timestamp;P1;durP1;ratioP1;P2;durP2;ratioP2
52894;SDS011;38759;53.396;6.722;2023-06-26T00:02:11;12.52;;;8.77;;
52894;SDS011;38759;53.396;6.722;2023-06-26T00:04:37;11.55;;;8.07;;
52894;SDS011;38759;53.396;6.722;2023-06-26T00:07:03;14.38;;;8.77;;
52894;SDS011;38759;53.396;6.722;2023-06-26T00:09:29;14.48;;;9.85;;
52894;SDS011;38759;53.396;6.722;2023-06-26T00:11:55;9.60;;;8.50;;
52894;SDS011;38759;53.396;6.722;2023-06-26T00:14:21;12.50;;;9.13;;
52894;SDS011;38759;53.396;6.722;2023-06-26T00:16:47;11.38;;;9.23;;
52894;SDS011;38759;53.396;6.722;2023-06-26T00:19:14;10.70;;;8.95;;
52894;SDS011;38759;53.396;6.722;2023-06-26T00:21:40;11.60;;;8.55;;
52894;SDS011;38759;53.396;6.722;2023-06-26T00:24:12;11.05;;;9.38;;
52894;SDS011;38759;53.396;6.722;2023-06-26T00:26:38;11.63;;;9.02;;
52894;SDS011;38759;53.396;6.722;2023-06-26T00:29:04;13.90;;;9.45;;
52894;SDS011;38759;53.396;6.722;2023-06-26T00:31:30;10.35;;;9.30;;
52894;SDS011;38759;53.396;6.722;2023-06-26T00:34:00;14.15;;;10.02;;
52894;SDS011;38759;53.396;6.722;2023-06-26T00:36:26;10.88;;;9.75;;
52894;SDS011;38759;53.396;6.722;2023-06-26T00:38:52;13.43;;;9.40;;
52894;SDS011;38759;53.396;6.722;2023-06-26T00:41:18;13.20;;;9.85;;
52894;SDS011;38759;53.396;6.722;2023-06-26T00:43:44;13.98;;;9.65;;
52894;SDS011;38759;53.396;6.722;2023-06-26T00:46:10;16.08;;;10.60;;
52894;SDS011;38759;53.396;6.722;2023-06-26T00:48:37;12.80;;;10.50;;
52894;SDS011;38759;53.396;6.722;2023-06-26T00:51:06;14.43;;;10.43;;
52894;SDS011;38759;53.396;6.722;2023-06-26T00:53:32;16.15;;;11.00;;
52894;SDS011;38759;53.396;6.722;2023-06-26T00:55:59;21.40;;;10.52;;
52894;SDS011;38759;53.396;6.722;2023-06-26T00:58:26;15.25;;;10.65;;
52894;SDS011;38759;53.396;6.722;2023-06-26T01:00:52;13.52;;;10.30;;
52894;SDS011;38759;53.396;6.722;2023-06-26T01:03:18;14.93;;;10.50;;
52894;SDS011;38759;53.396;6.722;2023-06-26T01:05:45;11.68;;;9.75;;
52894;SDS011;38759;53.396;6.722;2023-06-26T01:08:14;16.10;;;10.68;;
52894;SDS011;38759;53.396;6.722;2023-06-26T01:10:41;16.08;;;10.38;;
52894;SDS011;38759;53.396;6.722;2023-06-26T01:13:07;12.93;;;11.00;;
52894;SDS011;38759;53.396;6.722;2023-06-26T01:15:33;16.80;;;10.60;;
52894;SDS011;38759;53.396;6.722;2023-06-26T01:17:59;16.23;;;11.15;;
52894;SDS011;38759;53.396;6.722;2023-06-26T01:20:29;13.65;;;10.95;;
52894;SDS011;38759;53.396;6.722;2023-06-26T01:25:45;17.00;;;11.93;;
52894;SDS011;38759;53.396;6.722;2023-06-26T01:28:16;14.48;;;11.27;;
52894;SDS011;38759;53.396;6.722;2023-06-26T01:30:44;17.73;;;11.07;;
52894;SDS011;38759;53.396;6.722;2023-06-26T01:33:12;18.73;;;11.82;;
52894;SDS011;38759;53.396;6.722;2023-06-26T01:35:38;16.85;;;11.00;;
52894;SDS011;38759;53.396;6.722;2023-06-26T01:38:38;16.10;;;10.88;;
52894;SDS011;38759;53.396;6.722;2023-06-26T01:40:56;15.27;;;11.60;;
52894;SDS011;38759;53.396;6.722;2023-06-26T01:45:50;15.38;;;11.75;;
52894;SDS011;38759;53.396;6.722;2023-06-26T01:48:17;16.55;;;11.40;;
52894;SDS011;38759;53.396;6.722;2023-06-26T01:50:48;16.48;;;11.77;;
52894;SDS011;38759;53.396;6.722;2023-06-26T01:53:17;15.82;;;11.32;;
52894;SDS011;38759;53.396;6.722;2023-06-26T01:55:51;14.95;;;11.82;;
52894;SDS011;38759;53.396;6.722;2023-06-26T01:58:21;17.15;;;11.63;;
52894;SDS011;38759;53.396;6.722;2023-06-26T02:00:49;17.90;;;11.38;;
52894;SDS011;38759;53.396;6.722;2023-06-26T02:03:14;16.25;;;12.35;;
52894;SDS011;38759;53.396;6.722;2023-06-26T02:05:40;32.78;;;12.07;;
52894;SDS011;38759;53.396;6.722;2023-06-26T02:08:07;15.80;;;12.05;;
52894;SDS011;38759;53.396;6.722;2023-06-26T02:10:33;17.23;;;12.52;;
52894;SDS011;38759;53.396;6.722;2023-06-26T02:12:59;15.75;;;11.73;;
52894;SDS011;38759;53.396;6.722;2023-06-26T02:15:25;18.67;;;12.40;;
52894;SDS011;38759;53.396;6.722;2023-06-26T02:17:51;19.00;;;12.90;;
52894;SDS011;38759;53.396;6.722;2023-06-26T02:20:17;14.57;;;12.05;;
52894;SDS011;38759;53.396;6.722;2023-06-26T02:22:42;17.60;;;12.25;;
52894;SDS011;38759;53.396;6.722;2023-06-26T02:25:09;16.23;;;11.88;;
52894;SDS011;38759;53.396;6.722;2023-06-26T02:27:38;18.38;;;11.75;;
52894;SDS011;38759;53.396;6.722;2023-06-26T02:30:04;21.60;;;11.63;;
52894;SDS011;38759;53.396;6.722;2023-06-26T02:32:30;16.30;;;11.55;;
52894;SDS011;38759;53.396;6.722;2023-06-26T02:34:56;13.95;;;11.88;;
52894;SDS011;38759;53.396;6.722;2023-06-26T02:37:21;17.95;;;12.68;;
52894;SDS011;38759;53.396;6.722;2023-06-26T02:39:47;15.85;;;13.05;;
52894;SDS011;38759;53.396;6.722;2023-06-26T02:42:13;16.42;;;12.27;;
52894;SDS011;38759;53.396;6.722;2023-06-26T02:44:38;15.00;;;11.35;;
52894;SDS011;38759;53.396;6.722;2023-06-26T02:47:04;16.65;;;13.00;;
52894;SDS011;38759;53.396;6.722;2023-06-26T02:49:30;13.75;;;11.68;;
52894;SDS011;38759;53.396;6.722;2023-06-26T02:51:55;15.43;;;12.07;;
52894;SDS011;38759;53.396;6.722;2023-06-26T02:54:21;18.25;;;13.65;;
52894;SDS011;38759;53.396;6.722;2023-06-26T02:56:47;14.68;;;12.98;;
52894;SDS011;38759;53.396;6.722;2023-06-26T02:59:13;14.73;;;13.05;;
52894;SDS011;38759;53.396;6.722;2023-06-26T03:01:39;16.67;;;12.60;;
52894;SDS011;38759;53.396;6.722;2023-06-26T03:04:04;15.05;;;13.38;;
52894;SDS011;38759;53.396;6.722;2023-06-26T03:06:30;14.68;;;12.93;;
52894;SDS011;38759;53.396;6.722;2023-06-26T03:08:56;13.45;;;12.05;;
52894;SDS011;38759;53.396;6.722;2023-06-26T03:11:21;14.85;;;13.13;;
52894;SDS011;38759;53.396;6.722;2023-06-26T03:13:47;15.77;;;13.27;;
52894;SDS011;38759;53.396;6.722;2023-06-26T03:16:13;15.32;;;11.93;;
52894;SDS011;38759;53.396;6.722;2023-06-26T03:18:38;14.63;;;12.98;;
52894;SDS011;38759;53.396;6.722;2023-06-26T03:21:04;14.77;;;12.77;;
52894;SDS011;38759;53.396;6.722;2023-06-26T03:23:30;16.63;;;12.30;;
52894;SDS011;38759;53.396;6.722;2023-06-26T03:25:56;16.20;;;12.20;;
52894;SDS011;38759;53.396;6.722;2023-06-26T03:28:21;18.55;;;13.93;;
52894;SDS011;38759;53.396;6.722;2023-06-26T03:30:47;18.10;;;12.15;;
52894;SDS011;38759;53.396;6.722;2023-06-26T03:33:13;18.33;;;12.80;;
52894;SDS011;38759;53.396;6.722;2023-06-26T03:35:38;17.92;;;13.15;;
52894;SDS011;38759;53.396;6.722;2023-06-26T03:38:04;14.82;;;13.27;;
52894;SDS011;38759;53.396;6.722;2023-06-26T03:40:30;16.23;;;12.30;;
52894;SDS011;38759;53.396;6.722;2023-06-26T03:42:56;15.02;;;13.18;;
52894;SDS011;38759;53.396;6.722;2023-06-26T03:45:22;16.42;;;12.45;;
52894;SDS011;38759;53.396;6.722;2023-06-26T03:47:48;16.52;;;12.73;;
52894;SDS011;38759;53.396;6.722;2023-06-26T03:50:15;16.40;;;12.77;;
52894;SDS011;38759;53.396;6.722;2023-06-26T03:52:41;15.32;;;13.07;;
52894;SDS011;38759;53.396;6.722;2023-06-26T03:55:07;14.20;;;12.25;;
52894;SDS011;38759;53.396;6.722;2023-06-26T03:57:33;15.48;;;12.77;;
52894;SDS011;38759;53.396;6.722;2023-06-26T03:59:58;14.35;;;12.43;;
52894;SDS011;38759;53.396;6.722;2023-06-26T04:02:24;15.23;;;11.82;;
52894;SDS011;38759;53.396;6.722;2023-06-26T04:04:50;13.90;;;12.45;;
52894;SDS011;38759;53.396;6.722;2023-06-26T04:07:17;15.88;;;12.23;;
52894;SDS011;38759;53.396;6.722;2023-06-26T04:09:43;12.98;;;11.68;;
52894;SDS011;38759;53.396;6.722;2023-06-26T04:12:09;16.25;;;11.68;;
52894;SDS011;38759;53.396;6.722;2023-06-26T04:14:34;12.32;;;11.05;;
52894;SDS011;38759;53.396;6.722;2023-06-26T04:17:00;13.10;;;11.63;;
52894;SDS011;38759;53.396;6.722;2023-06-26T04:19:28;16.90;;;11.25;;
52894;SDS011;38759;53.396;6.722;2023-06-26T04:21:54;13.05;;;11.65;;
52894;SDS011;38759;53.396;6.722;2023-06-26T04:24:20;18.25;;;11.65;;
52894;SDS011;38759;53.396;6.722;2023-06-26T04:26:45;13.40;;;11.25;;
52894;SDS011;38759;53.396;6.722;2023-06-26T04:29:11;13.52;;;12.13;;
52894;SDS011;38759;53.396;6.722;2023-06-26T04:31:37;13.05;;;11.65;;
52894;SDS011;38759;53.396;6.722;2023-06-26T04:34:04;14.82;;;11.65;;
52894;SDS011;38759;53.396;6.722;2023-06-26T04:36:30;15.13;;;11.68;;
52894;SDS011;38759;53.396;6.722;2023-06-26T04:38:56;12.57;;;11.27;;
52894;SDS011;38759;53.396;6.722;2023-06-26T04:41:23;16.15;;;11.30;;
52894;SDS011;38759;53.396;6.722;2023-06-26T04:43:50;13.48;;;11.27;;
52894;SDS011;38759;53.396;6.722;2023-06-26T04:46:15;14.65;;;11.95;;
52894;SDS011;38759;53.396;6.722;2023-06-26T04:48:41;13.90;;;11.88;;
52894;SDS011;38759;53.396;6.722;2023-06-26T04:51:09;14.80;;;12.75;;
52894;SDS011;38759;53.396;6.722;2023-06-26T04:53:35;17.10;;;11.75;;
52894;SDS011;38759;53.396;6.722;2023-06-26T04:56:01;14.32;;;11.43;;
52894;SDS011;38759;53.396;6.722;2023-06-26T04:58:26;20.02;;;12.48;;
52894;SDS011;38759;53.396;6.722;2023-06-26T05:00:52;21.77;;;11.98;;
52894;SDS011;38759;53.396;6.722;2023-06-26T05:03:18;15.55;;;11.70;;
52894;SDS011;38759;53.396;6.722;2023-06-26T05:05:44;14.77;;;11.25;;
52894;SDS011;38759;53.396;6.722;2023-06-26T05:08:14;16.05;;;11.52;;
52894;SDS011;38759;53.396;6.722;2023-06-26T05:10:43;16.25;;;11.52;;
52894;SDS011;38759;53.396;6.722;2023-06-26T05:13:09;23.58;;;11.18;;
52894;SDS011;38759;53.396;6.722;2023-06-26T05:15:35;26.75;;;11.63;;
52894;SDS011;38759;53.396;6.722;2023-06-26T05:18:01;38.08;;;13.43;;
52894;SDS011;38759;53.396;6.722;2023-06-26T05:20:26;28.58;;;13.32;;
52894;SDS011;38759;53.396;6.722;2023-06-26T05:22:52;25.17;;;12.90;;
52894;SDS011;38759;53.396;6.722;2023-06-26T05:25:18;25.60;;;10.63;;
52894;SDS011;38759;53.396;6.722;2023-06-26T05:27:47;30.15;;;14.57;;
52894;SDS011;38759;53.396;6.722;2023-06-26T05:30:14;26.40;;;14.57;;
52894;SDS011;38759;53.396;6.722;2023-06-26T05:32:40;27.55;;;14.15;;
52894;SDS011;38759;53.396;6.722;2023-06-26T05:35:06;31.45;;;14.68;;
52894;SDS011;38759;53.396;6.722;2023-06-26T05:37:32;29.88;;;12.82;;
52894;SDS011;38759;53.396;6.722;2023-06-26T05:39:59;28.73;;;11.88;;
52894;SDS011;38759;53.396;6.722;2023-06-26T05:42:26;25.02;;;9.18;;
52894;SDS011;38759;53.396;6.722;2023-06-26T05:44:55;22.13;;;9.10;;
52894;SDS011;38759;53.396;6.722;2023-06-26T05:47:21;30.33;;;9.55;;
52894;SDS011;38759;53.396;6.722;2023-06-26T05:49:47;24.67;;;7.93;;
52894;SDS011;38759;53.396;6.722;2023-06-26T05:52:13;21.88;;;7.10;;
52894;SDS011;38759;53.396;6.722;2023-06-26T05:54:39;19.67;;;6.57;;
52894;SDS011;38759;53.396;6.722;2023-06-26T05:57:05;25.55;;;7.00;;
52894;SDS011;38759;53.396;6.722;2023-06-26T05:59:31;22.38;;;6.25;;
52894;SDS011;38759;53.396;6.722;2023-06-26T06:01:57;21.88;;;6.57;;
52894;SDS011;38759;53.396;6.722;2023-06-26T06:04:23;19.83;;;6.50;;
52894;SDS011;38759;53.396;6.722;2023-06-26T06:06:49;25.77;;;6.50;;
52894;SDS011;38759;53.396;6.722;2023-06-26T06:09:15;16.80;;;4.57;;
52894;SDS011;38759;53.396;6.722;2023-06-26T06:11:40;22.92;;;5.45;;
52894;SDS011;38759;53.396;6.722;2023-06-26T06:14:06;23.80;;;6.38;;
52894;SDS011;38759;53.396;6.722;2023-06-26T06:16:32;22.40;;;5.68;;
52894;SDS011;38759;53.396;6.722;2023-06-26T06:18:57;21.38;;;5.43;;
52894;SDS011;38759;53.396;6.722;2023-06-26T06:21:23;16.05;;;4.53;;
52894;SDS011;38759;53.396;6.722;2023-06-26T06:23:49;22.92;;;5.10;;
52894;SDS011;38759;53.396;6.722;2023-06-26T06:26:14;23.58;;;5.25;;
52894;SDS011;38759;53.396;6.722;2023-06-26T06:28:40;24.88;;;5.03;;
52894;SDS011;38759;53.396;6.722;2023-06-26T06:31:06;16.35;;;4.47;;
52894;SDS011;38759;53.396;6.722;2023-06-26T06:33:31;15.88;;;4.35;;
52894;SDS011;38759;53.396;6.722;2023-06-26T06:35:57;18.98;;;4.28;;
52894;SDS011;38759;53.396;6.722;2023-06-26T06:38:23;10.10;;;2.70;;
52894;SDS011;38759;53.396;6.722;2023-06-26T06:40:48;17.58;;;3.83;;
52894;SDS011;38759;53.396;6.722;2023-06-26T06:43:14;16.17;;;3.25;;
52894;SDS011;38759;53.396;6.722;2023-06-26T06:45:40;15.82;;;3.90;;
52894;SDS011;38759;53.396;6.722;2023-06-26T06:48:06;12.48;;;2.70;;
52894;SDS011;38759;53.396;6.722;2023-06-26T06:50:32;17.92;;;3.83;;
52894;SDS011;38759;53.396;6.722;2023-06-26T06:52:58;19.75;;;3.60;;
52894;SDS011;38759;53.396;6.722;2023-06-26T06:55:23;18.40;;;3.47;;
52894;SDS011;38759;53.396;6.722;2023-06-26T06:57:50;15.15;;;3.20;;
52894;SDS011;38759;53.396;6.722;2023-06-26T07:00:16;13.40;;;3.28;;
52894;SDS011;38759;53.396;6.722;2023-06-26T07:02:43;17.42;;;3.67;;
52894;SDS011;38759;53.396;6.722;2023-06-26T07:05:10;14.40;;;3.70;;
52894;SDS011;38759;53.396;6.722;2023-06-26T07:07:36;15.73;;;2.60;;
52894;SDS011;38759;53.396;6.722;2023-06-26T07:10:06;10.48;;;2.40;;
52894;SDS011;38759;53.396;6.722;2023-06-26T07:12:36;14.73;;;3.75;;
52894;SDS011;38759;53.396;6.722;2023-06-26T07:15:03;16.63;;;3.40;;
52894;SDS011;38759;53.396;6.722;2023-06-26T07:17:30;14.05;;;3.17;;
52894;SDS011;38759;53.396;6.722;2023-06-26T07:19:56;13.30;;;3.25;;
52894;SDS011;38759;53.396;6.722;2023-06-26T07:22:22;10.85;;;2.25;;
52894;SDS011;38759;53.396;6.722;2023-06-26T07:24:48;11.50;;;2.30;;
52894;SDS011;38759;53.396;6.722;2023-06-26T07:27:14;7.55;;;2.08;;
52894;SDS011;38759;53.396;6.722;2023-06-26T07:29:40;11.90;;;2.13;;
52894;SDS011;38759;53.396;6.722;2023-06-26T07:32:06;16.63;;;3.20;;
52894;SDS011;38759;53.396;6.722;2023-06-26T07:34:32;13.88;;;3.13;;
52894;SDS011;38759;53.396;6.722;2023-06-26T07:36:58;17.38;;;3.38;;
52894;SDS011;38759;53.396;6.722;2023-06-26T07:39:24;12.50;;;3.03;;
52894;SDS011;38759;53.396;6.722;2023-06-26T07:41:50;13.23;;;2.78;;
52894;SDS011;38759;53.396;6.722;2023-06-26T07:44:15;10.68;;;2.38;;
52894;SDS011;38759;53.396;6.722;2023-06-26T07:46:41;10.85;;;2.38;;
52894;SDS011;38759;53.396;6.722;2023-06-26T07:49:06;13.10;;;2.90;;
52894;SDS011;38759;53.396;6.722;2023-06-26T07:51:32;17.63;;;3.35;;
52894;SDS011;38759;53.396;6.722;2023-06-26T07:53:58;15.13;;;3.00;;
52894;SDS011;38759;53.396;6.722;2023-06-26T07:56:24;13.00;;;3.20;;
52894;SDS011;38759;53.396;6.722;2023-06-26T07:58:49;10.00;;;2.65;;
52894;SDS011;38759;53.396;6.722;2023-06-26T08:01:15;13.38;;;2.95;;
52894;SDS011;38759;53.396;6.722;2023-06-26T08:03:41;10.73;;;2.70;;
52894;SDS011;38759;53.396;6.722;2023-06-26T08:06:07;10.70;;;2.90;;
52894;SDS011;38759;53.396;6.722;2023-06-26T08:08:32;8.63;;;2.08;;
52894;SDS011;38759;53.396;6.722;2023-06-26T08:10:58;9.35;;;2.38;;
52894;SDS011;38759;53.396;6.722;2023-06-26T08:13:24;9.57;;;2.50;;
52894;SDS011;38759;53.396;6.722;2023-06-26T08:15:50;13.25;;;2.97;;
52894;SDS011;38759;53.396;6.722;2023-06-26T08:18:15;11.32;;;2.67;;
52894;SDS011;38759;53.396;6.722;2023-06-26T08:20:42;9.57;;;2.35;;
52894;SDS011;38759;53.396;6.722;2023-06-26T08:23:08;7.60;;;2.53;;
52894;SDS011;38759;53.396;6.722;2023-06-26T08:25:34;7.95;;;2.30;;
52894;SDS011;38759;53.396;6.722;2023-06-26T08:27:59;9.05;;;2.33;;
52894;SDS011;38759;53.396;6.722;2023-06-26T08:30:25;9.95;;;2.45;;
52894;SDS011;38759;53.396;6.722;2023-06-26T08:32:54;5.78;;;2.05;;
52894;SDS011;38759;53.396;6.722;2023-06-26T08:35:20;8.43;;;2.53;;
52894;SDS011;38759;53.396;6.722;2023-06-26T08:37:46;9.63;;;2.58;;
52894;SDS011;38759;53.396;6.722;2023-06-26T08:40:12;10.43;;;2.30;;
52894;SDS011;38759;53.396;6.722;2023-06-26T08:42:41;10.20;;;2.47;;
52894;SDS011;38759;53.396;6.722;2023-06-26T08:45:07;10.18;;;2.38;;
52894;SDS011;38759;53.396;6.722;2023-06-26T08:47:33;7.05;;;2.42;;
52894;SDS011;38759;53.396;6.722;2023-06-26T08:50:01;8.10;;;2.45;;
52894;SDS011;38759;53.396;6.722;2023-06-26T08:52:36;9.23;;;2.22;;
52894;SDS011;38759;53.396;6.722;2023-06-26T08:55:10;5.65;;;1.50;;
52894;SDS011;38759;53.396;6.722;2023-06-26T08:57:40;10.00;;;2.10;;
52894;SDS011;38759;53.396;6.722;2023-06-26T09:00:06;5.82;;;1.77;;
52894;SDS011;38759;53.396;6.722;2023-06-26T09:02:33;8.80;;;2.40;;
52894;SDS011;38759;53.396;6.722;2023-06-26T09:05:03;6.63;;;2.80;;
52894;SDS011;38759;53.396;6.722;2023-06-26T09:07:29;8.93;;;2.60;;
52894;SDS011;38759;53.396;6.722;2023-06-26T09:09:55;7.80;;;2.40;;
52894;SDS011;38759;53.396;6.722;2023-06-26T09:12:20;5.53;;;1.98;;
52894;SDS011;38759;53.396;6.722;2023-06-26T09:14:46;7.47;;;2.40;;
52894;SDS011;38759;53.396;6.722;2023-06-26T09:17:13;7.15;;;2.22;;
52894;SDS011;38759;53.396;6.722;2023-06-26T09:19:38;8.02;;;2.35;;
52894;SDS011;38759;53.396;6.722;2023-06-26T09:22:04;8.30;;;2.50;;
52894;SDS011;38759;53.396;6.722;2023-06-26T09:24:35;4.60;;;1.85;;
52894;SDS011;38759;53.396;6.722;2023-06-26T09:27:02;4.63;;;1.65;;
52894;SDS011;38759;53.396;6.722;2023-06-26T09:29:27;5.65;;;2.35;;
52894;SDS011;38759;53.396;6.722;2023-06-26T09:31:55;8.50;;;2.15;;
52894;SDS011;38759;53.396;6.722;2023-06-26T09:34:21;8.15;;;2.80;;
52894;SDS011;38759;53.396;6.722;2023-06-26T09:36:47;9.02;;;3.10;;
52894;SDS011;38759;53.396;6.722;2023-06-26T09:39:14;6.45;;;2.40;;
52894;SDS011;38759;53.396;6.722;2023-06-26T09:41:43;7.82;;;2.58;;
52894;SDS011;38759;53.396;6.722;2023-06-26T09:44:13;7.03;;;2.53;;
52894;SDS011;38759;53.396;6.722;2023-06-26T09:46:39;7.78;;;2.30;;
52894;SDS011;38759;53.396;6.722;2023-06-26T09:49:06;6.55;;;2.60;;
52894;SDS011;38759;53.396;6.722;2023-06-26T09:51:34;9.23;;;2.63;;
52894;SDS011;38759;53.396;6.722;2023-06-26T09:54:01;10.25;;;2.88;;
52894;SDS011;38759;53.396;6.722;2023-06-26T09:56:28;8.68;;;2.92;;
52894;SDS011;38759;53.396;6.722;2023-06-26T09:58:58;6.82;;;2.35;;
52894;SDS011;38759;53.396;6.722;2023-06-26T10:01:29;10.25;;;2.60;;
52894;SDS011;38759;53.396;6.722;2023-06-26T10:03:56;5.78;;;2.30;;
52894;SDS011;38759;53.396;6.722;2023-06-26T10:06:24;5.80;;;2.47;;
52894;SDS011;38759;53.396;6.722;2023-06-26T10:09:03;7.80;;;2.67;;
52894;SDS011;38759;53.396;6.722;2023-06-26T10:11:32;8.75;;;2.25;;
52894;SDS011;38759;53.396;6.722;2023-06-26T10:14:10;8.13;;;2.47;;
52894;SDS011;38759;53.396;6.722;2023-06-26T10:16:37;9.05;;;2.60;;
52894;SDS011;38759;53.396;6.722;2023-06-26T10:19:07;9.45;;;2.42;;
52894;SDS011;38759;53.396;6.722;2023-06-26T10:21:35;5.47;;;2.10;;
52894;SDS011;38759;53.396;6.722;2023-06-26T10:24:04;8.82;;;2.42;;
52894;SDS011;38759;53.396;6.722;2023-06-26T10:26:31;8.65;;;2.35;;
52894;SDS011;38759;53.396;6.722;2023-06-26T10:29:02;5.15;;;2.13;;
52894;SDS011;38759;53.396;6.722;2023-06-26T10:31:29;12.15;;;2.40;;
52894;SDS011;38759;53.396;6.722;2023-06-26T10:33:56;8.90;;;2.42;;
52894;SDS011;38759;53.396;6.722;2023-06-26T10:36:30;7.53;;;2.50;;
52894;SDS011;38759;53.396;6.722;2023-06-26T10:38:57;10.02;;;2.55;;
52894;SDS011;38759;53.396;6.722;2023-06-26T10:41:30;13.85;;;2.28;;
52894;SDS011;38759;53.396;6.722;2023-06-26T10:46:53;5.32;;;2.30;;
52894;SDS011;38759;53.396;6.722;2023-06-26T10:49:20;7.80;;;2.25;;
52894;SDS011;38759;53.396;6.722;2023-06-26T10:51:50;8.93;;;2.78;;
52894;SDS011;38759;53.396;6.722;2023-06-26T10:54:17;9.45;;;2.90;;
52894;SDS011;38759;53.396;6.722;2023-06-26T10:56:50;6.90;;;2.80;;
52894;SDS011;38759;53.396;6.722;2023-06-26T10:59:22;7.93;;;2.63;;
52894;SDS011;38759;53.396;6.722;2023-06-26T11:01:56;7.60;;;2.72;;
52894;SDS011;38759;53.396;6.722;2023-06-26T11:07:22;12.30;;;2.85;;
52894;SDS011;38759;53.396;6.722;2023-06-26T11:09:59;10.45;;;2.60;;
52894;SDS011;38759;53.396;6.722;2023-06-26T11:12:35;10.82;;;2.60;;
52894;SDS011;38759;53.396;6.722;2023-06-26T11:15:11;8.52;;;2.55;;
52894;SDS011;38759;53.396;6.722;2023-06-26T11:17:44;7.93;;;2.35;;
52894;SDS011;38759;53.396;6.722;2023-06-26T11:20:10;10.50;;;2.38;;
52894;SDS011;38759;53.396;6.722;2023-06-26T11:22:38;9.43;;;2.40;;
52894;SDS011;38759;53.396;6.722;2023-06-26T11:25:05;7.45;;;2.40;;
52894;SDS011;38759;53.396;6.722;2023-06-26T11:30:07;6.28;;;1.90;;
52894;SDS011;38759;53.396;6.722;2023-06-26T11:32:47;6.70;;;2.20;;
52894;SDS011;38759;53.396;6.722;2023-06-26T11:35:12;7.60;;;2.13;;
52894;SDS011;38759;53.396;6.722;2023-06-26T11:37:38;7.63;;;2.10;;
52894;SDS011;38759;53.396;6.722;2023-06-26T11:40:20;7.80;;;2.08;;
52894;SDS011;38759;53.396;6.722;2023-06-26T11:42:46;9.18;;;2.25;;
52894;SDS011;38759;53.396;6.722;2023-06-26T11:45:12;12.93;;;2.10;;
52894;SDS011;38759;53.396;6.722;2023-06-26T11:47:38;9.13;;;2.60;;
52894;SDS011;38759;53.396;6.722;2023-06-26T11:50:04;13.15;;;2.95;;
52894;SDS011;38759;53.396;6.722;2023-06-26T11:52:32;9.48;;;2.20;;
52894;SDS011;38759;53.396;6.722;2023-06-26T11:54:58;10.77;;;2.63;;
52894;SDS011;38759;53.396;6.722;2023-06-26T11:57:24;12.30;;;2.72;;
52894;SDS011;38759;53.396;6.722;2023-06-26T11:59:49;11.07;;;2.72;;
52894;SDS011;38759;53.396;6.722;2023-06-26T12:02:16;11.35;;;2.70;;
52894;SDS011;38759;53.396;6.722;2023-06-26T12:04:43;12.10;;;3.10;;
52894;SDS011;38759;53.396;6.722;2023-06-26T12:07:09;8.82;;;2.53;;
52894;SDS011;38759;53.396;6.722;2023-06-26T12:09:42;14.50;;;2.70;;
52894;SDS011;38759;53.396;6.722;2023-06-26T12:12:11;14.63;;;2.70;;
52894;SDS011;38759;53.396;6.722;2023-06-26T12:14:39;10.20;;;2.67;;
52894;SDS011;38759;53.396;6.722;2023-06-26T12:17:11;7.13;;;2.30;;
52894;SDS011;38759;53.396;6.722;2023-06-26T12:19:45;7.97;;;2.58;;
52894;SDS011;38759;53.396;6.722;2023-06-26T12:22:15;13.45;;;2.58;;
52894;SDS011;38759;53.396;6.722;2023-06-26T12:24:42;9.52;;;2.70;;
52894;SDS011;38759;53.396;6.722;2023-06-26T12:27:14;13.88;;;2.65;;
52894;SDS011;38759;53.396;6.722;2023-06-26T12:29:51;9.73;;;2.60;;
52894;SDS011;38759;53.396;6.722;2023-06-26T12:32:18;10.68;;;2.65;;
52894;SDS011;38759;53.396;6.722;2023-06-26T12:34:46;7.00;;;2.35;;
52894;SDS011;38759;53.396;6.722;2023-06-26T12:37:14;11.98;;;2.38;;
52894;SDS011;38759;53.396;6.722;2023-06-26T12:42:17;10.13;;;2.75;;
52894;SDS011;38759;53.396;6.722;2023-06-26T12:44:48;7.35;;;2.47;;
52894;SDS011;38759;53.396;6.722;2023-06-26T12:47:18;7.85;;;2.30;;
52894;SDS011;38759;53.396;6.722;2023-06-26T12:49:52;10.77;;;1.83;;
52894;SDS011;38759;53.396;6.722;2023-06-26T12:52:18;6.97;;;2.08;;
52894;SDS011;38759;53.396;6.722;2023-06-26T12:54:45;11.07;;;1.90;;
52894;SDS011;38759;53.396;6.722;2023-06-26T12:57:12;8.13;;;1.92;;
52894;SDS011;38759;53.396;6.722;2023-06-26T12:59:41;8.88;;;1.90;;
52894;SDS011;38759;53.396;6.722;2023-06-26T13:02:07;10.90;;;2.33;;
52894;SDS011;38759;53.396;6.722;2023-06-26T13:04:33;10.15;;;2.30;;
52894;SDS011;38759;53.396;6.722;2023-06-26T13:07:00;7.50;;;2.20;;
52894;SDS011;38759;53.396;6.722;2023-06-26T13:09:26;10.63;;;2.30;;
52894;SDS011;38759;53.396;6.722;2023-06-26T13:11:58;8.65;;;2.25;;
52894;SDS011;38759;53.396;6.722;2023-06-26T13:14:24;9.13;;;2.25;;
52894;SDS011;38759;53.396;6.722;2023-06-26T13:16:51;9.38;;;2.22;;
52894;SDS011;38759;53.396;6.722;2023-06-26T13:19:16;11.30;;;2.17;;
52894;SDS011;38759;53.396;6.722;2023-06-26T13:21:42;10.98;;;1.83;;
52894;SDS011;38759;53.396;6.722;2023-06-26T13:24:08;8.32;;;2.20;;
52894;SDS011;38759;53.396;6.722;2023-06-26T13:26:34;13.95;;;3.35;;
52894;SDS011;38759;53.396;6.722;2023-06-26T13:28:59;11.10;;;2.58;;
52894;SDS011;38759;53.396;6.722;2023-06-26T13:31:27;10.80;;;2.58;;
52894;SDS011;38759;53.396;6.722;2023-06-26T13:33:57;9.77;;;2.38;;
52894;SDS011;38759;53.396;6.722;2023-06-26T13:36:23;8.63;;;2.42;;
52894;SDS011;38759;53.396;6.722;2023-06-26T13:38:50;10.13;;;2.10;;
52894;SDS011;38759;53.396;6.722;2023-06-26T13:41:20;7.22;;;2.08;;
52894;SDS011;38759;53.396;6.722;2023-06-26T13:43:49;15.50;;;2.70;;
52894;SDS011;38759;53.396;6.722;2023-06-26T13:46:16;11.93;;;2.53;;
52894;SDS011;38759;53.396;6.722;2023-06-26T13:48:42;8.48;;;2.38;;
52894;SDS011;38759;53.396;6.722;2023-06-26T13:51:09;10.82;;;2.70;;
52894;SDS011;38759;53.396;6.722;2023-06-26T13:53:35;9.55;;;3.00;;
52894;SDS011;38759;53.396;6.722;2023-06-26T13:56:00;6.00;;;2.00;;
52894;SDS011;38759;53.396;6.722;2023-06-26T13:58:26;12.40;;;2.65;;
52894;SDS011;38759;53.396;6.722;2023-06-26T14:00:53;9.95;;;2.58;;
52894;SDS011;38759;53.396;6.722;2023-06-26T14:03:19;11.93;;;2.83;;
52894;SDS011;38759;53.396;6.722;2023-06-26T14:05:44;12.40;;;2.65;;
52894;SDS011;38759;53.396;6.722;2023-06-26T14:08:10;10.65;;;2.90;;
52894;SDS011;38759;53.396;6.722;2023-06-26T14:10:37;11.05;;;2.53;;
52894;SDS011;38759;53.396;6.722;2023-06-26T14:13:03;13.20;;;2.90;;
52894;SDS011;38759;53.396;6.722;2023-06-26T14:15:29;10.32;;;2.85;;
52894;SDS011;38759;53.396;6.722;2023-06-26T14:17:55;12.80;;;2.88;;
52894;SDS011;38759;53.396;6.722;2023-06-26T14:20:21;10.95;;;2.85;;
52894;SDS011;38759;53.396;6.722;2023-06-26T14:22:48;13.52;;;3.03;;
52894;SDS011;38759;53.396;6.722;2023-06-26T14:25:14;12.50;;;2.63;;
52894;SDS011;38759;53.396;6.722;2023-06-26T14:27:41;11.70;;;2.65;;
52894;SDS011;38759;53.396;6.722;2023-06-26T14:30:07;10.88;;;2.70;;
52894;SDS011;38759;53.396;6.722;2023-06-26T14:32:34;11.13;;;2.45;;
52894;SDS011;38759;53.396;6.722;2023-06-26T14:35:00;7.13;;;2.33;;
52894;SDS011;38759;53.396;6.722;2023-06-26T14:37:26;13.57;;;3.10;;
52894;SDS011;38759;53.396;6.722;2023-06-26T14:39:54;11.75;;;2.97;;
52894;SDS011;38759;53.396;6.722;2023-06-26T14:42:20;14.25;;;2.97;;
52894;SDS011;38759;53.396;6.722;2023-06-26T14:44:46;10.80;;;2.80;;
52894;SDS011;38759;53.396;6.722;2023-06-26T14:47:19;14.00;;;3.00;;
52894;SDS011;38759;53.396;6.722;2023-06-26T14:49:44;9.40;;;2.60;;